ADDS METAR Data INFO
IDs: Format: Raw Decoded Include TAF

Data at: 1925 UTC 23 Apr 2018

KGVE 231915Z AUTO 08008KT 060V120 10SM BKN060 OVC070 20/08 A3033 RMK AO1 T01970076
KGVE 231855Z AUTO 12005KT 10SM BKN060 OVC070 19/07 A3034 RMK AO1 T01910074
KGVE 231835Z AUTO 14010KT 10SM OVC055 19/07 A3034 RMK AO1 T01930072
KGVE 231815Z AUTO 11009KT 10SM OVC055 19/08 A3034 RMK AO1 T01940075
KGVE 231755Z AUTO 14010G14KT 10SM OVC055 19/07 A3035 RMK AO1 T01910071 10199 20081
KGVE 231735Z AUTO 13011G15KT 10SM BKN050 BKN065 19/07 A3035 RMK AO1 T01940071
KGVE 231715Z AUTO 12011G18KT 080V140 10SM BKN050 BKN065 20/07 A3035 RMK AO1 T01960070
KGVE 231655Z AUTO 16006KT 10SM SCT050 20/07 A3037 RMK AO1 T01960068
KGVE 231635Z AUTO 16010G15KT 130V190 10SM BKN050 19/07 A3038 RMK AO1 T01900070
KGVE 231615Z AUTO 00000KT 10SM BKN045 BKN050 18/08 A3039 RMK AO1 T01750081
KGVE 231555Z AUTO 05004KT 10SM SCT043 17/08 A3039 RMK AO1 T01700081
KGVE 231535Z AUTO 04003KT 10SM CLR 17/08 A3039 RMK AO1 T01660083
KGVE 231515Z AUTO 08004KT 10SM CLR 16/08 A3040 RMK AO1 T01600082
KGVE 231455Z AUTO 00000KT 10SM CLR 15/08 A3040 RMK AO1 T01480076
KGVE 231435Z AUTO 11006KT 10SM CLR 15/08 A3040 RMK AO1 T01460076
KGVE 231415Z AUTO 01004KT 10SM CLR 14/07 A3040 RMK AO1 T01350073
KGVE 231355Z AUTO 00000KT 10SM CLR 13/07 A3041 RMK AO1 T01300069
KGVE 231335Z AUTO 00000KT 10SM CLR 12/07 A3041 RMK AO1 T01240065
KGVE 231315Z AUTO 00000KT 10SM CLR 12/06 A3042 RMK AO1 T01160060
KGVE 231255Z AUTO 00000KT 10SM CLR 11/06 A3042 RMK AO1 T01050057
KGVE 231235Z AUTO 00000KT 10SM CLR 09/05 A3041 RMK AO1 T00910052
KGVE 231215Z AUTO 04003KT 10SM CLR 08/05 A3041 RMK AO1 T00830049
KGVE 231155Z AUTO 04003KT 10SM CLR 08/05 A3041 RMK AO1 T00770051 10077 20036
KGVE 231135Z AUTO 00000KT 10SM CLR 06/05 A3041 RMK AO1 T00580049
KGVE 231115Z AUTO 05003KT 10SM CLR 04/04 A3040 RMK AO1 T00420040
KGVE 231055Z AUTO 00000KT 10SM CLR 04/04 A3040 RMK AO1 T00400039
KGVE 231035Z AUTO 00000KT 10SM CLR 04/04 A3039 RMK AO1 T00410037
KGVE 231015Z AUTO 03003KT 10SM CLR 06/04 A3038 RMK AO1 T00550039
KGVE 230955Z AUTO 07004KT 10SM CLR 05/04 A3038 RMK AO1 T00450038
KGVE 230935Z AUTO 00000KT 10SM CLR 04/04 A3037 RMK AO1 T00410039
KGVE 230915Z AUTO 00000KT 10SM CLR 04/04 A3037 RMK AO1 T00440035
KGVE 230855Z AUTO 00000KT 10SM CLR 05/04 A3038 RMK AO1 T00500041
KGVE 230835Z AUTO 00000KT 10SM SCT075 05/04 A3037 RMK AO1 T00510044
KGVE 230815Z AUTO 00000KT 10SM SCT075 05/04 A3037 RMK AO1 T00490042
KGVE 230755Z AUTO 00000KT 10SM CLR 06/05 A3038 RMK AO1 T00550045
KGVE 230735Z AUTO 00000KT 10SM CLR 05/04 A3037 RMK AO1 T00540042
KGVE 230715Z AUTO 00000KT 10SM CLR 06/05 A3037 RMK AO1 T00570046
KGVE 230655Z AUTO 00000KT 10SM CLR 07/04 A3037 RMK AO1 T00670042
KGVE 230635Z AUTO 04003KT 10SM CLR 07/05 A3037 RMK AO1 T00670047
KGVE 230615Z AUTO 04003KT 10SM CLR 07/05 A3038 RMK AO1 T00700048
KGVE 230555Z AUTO 00000KT 10SM CLR 08/05 A3037 RMK AO1 T00760050 10183 20072
KGVE 230535Z AUTO 04003KT 10SM CLR 08/05 A3037 RMK AO1 T00790048
KGVE 230515Z AUTO 00000KT 10SM CLR 09/05 A3037 RMK AO1 T00870047
KGVE 230455Z AUTO 00000KT 10SM CLR 09/05 A3037 RMK AO1 T00870051 402090069
KGVE 230435Z AUTO 04003KT 10SM CLR 09/05 A3037 RMK AO1 T00880051
KGVE 230415Z AUTO 04003KT 10SM SCT070 09/05 A3037 RMK AO1 T00920053
KGVE 230355Z AUTO 03003KT 10SM BKN070 10/05 A3037 RMK AO1 T00990054
KGVE 230335Z AUTO 00000KT 10SM SCT070 11/06 A3036 RMK AO1 T01070055
KGVE 230315Z AUTO 00000KT 10SM CLR 11/06 A3035 RMK AO1 T01110057
KGVE 230255Z AUTO 00000KT 10SM CLR 13/05 A3035 RMK AO1 T01250049
KGVE 230235Z AUTO 00000KT 10SM CLR 14/05 A3034 RMK AO1 T01370045
KGVE 230215Z AUTO 00000KT 10SM CLR 14/05 A3033 RMK AO1 T01410047
KGVE 230155Z AUTO 08003KT 10SM CLR 15/05 A3033 RMK AO1 T01450049
KGVE 230135Z AUTO 11004KT 10SM CLR 15/05 A3033 RMK AO1 T01500048
KGVE 230115Z AUTO 08003KT 10SM CLR 16/06 A3032 RMK AO1 T01550056
KGVE 230055Z AUTO 09004KT 10SM SCT070 16/07 A3031 RMK AO1 T01640065
KGVE 230035Z AUTO 12003KT 10SM BKN070 OVC080 17/07 A3030 RMK AO1 T01710065
KGVE 230015Z AUTO 11003KT 10SM OVC070 18/07 A3029 RMK AO1 T01770069
KGVE 222355Z AUTO 00000KT 10SM OVC070 19/07 A3029 RMK AO1 T01850068 10209 20184
KGVE 222335Z AUTO 13003KT 10SM OVC070 19/07 A3028 RMK AO1 T01860068
KGVE 222315Z AUTO 10SM SCT070 19/07 A3027 RMK AO1 T01900069
KGVE 222255Z AUTO 00000KT 10SM CLR 19/07 A3026 RMK AO1 T01930071
KGVE 222235Z AUTO 14006KT 10SM SCT070 20/07 A3026 RMK AO1 T01960070
KGVE 222215Z AUTO 14003KT 10SM BKN070 20/07 A3026 RMK AO1 T01970068
KGVE 222155Z AUTO 15004KT 10SM CLR 20/06 A3026 RMK AO1 T02000064
KGVE 222135Z AUTO 12004KT 10SM SCT070 20/07 A3027 RMK AO1 T02020069
KGVE 222115Z AUTO 15007KT 10SM SCT065 20/07 A3027 RMK AO1 T02020066
KGVE 222055Z AUTO 18006KT 10SM SCT070 21/07 A3027 RMK AO1 T02060065
KGVE 222035Z AUTO 19005KT 10SM SCT060 21/07 A3028 RMK AO1 T02070065
KGVE 222015Z AUTO 19003KT 10SM SCT060 21/07 A3028 RMK AO1 T02070065
KGVE 221955Z AUTO 00000KT 10SM SCT060 20/07 A3028 RMK AO1 T02020065
KGVE 221935Z AUTO 21004KT 10SM SCT060 20/06 A3029 RMK AO1 T01980062
KGVE 221915Z AUTO 14007KT 10SM SCT060 20/07 A3030 RMK AO1 T01960066
KGVE 221855Z AUTO 00000KT 10SM SCT060 19/06 A3031 RMK AO1 T01920062
KGVE 221835Z AUTO 00000KT 10SM CLR 19/06 A3032 RMK AO1 T01920064
KGVE 221815Z AUTO 17004KT 10SM CLR 20/07 A3032 RMK AO1 T01950065
KGVE 221755Z AUTO 18005KT 10SM CLR 19/07 A3033 RMK AO1 T01920067 10193 20090
KGVE 221735Z AUTO 15003KT 10SM CLR 19/07 A3033 RMK AO1 T01870065
KGVE 221715Z AUTO 23003KT 10SM CLR 18/06 A3033 RMK AO1 T01830063
KGVE 221655Z AUTO 20008KT 170V230 10SM CLR 19/07 A3034 RMK AO1 T01850066
KGVE 221635Z AUTO 18005KT 10SM CLR 17/07 A3035 RMK AO1 T01740066
KGVE 221615Z AUTO 25003KT 10SM CLR 17/07 A3035 RMK AO1 T01720068
KGVE 221555Z AUTO 00000KT 10SM CLR 17/07 A3035 RMK AO1 T01670066
KGVE 221535Z AUTO 00000KT 10SM CLR 16/06 A3036 RMK AO1 T01580062
KGVE 221515Z AUTO 00000KT 10SM CLR 15/07 A3036 RMK AO1 T01510066
KGVE 221455Z AUTO 04003KT 10SM CLR 14/07 A3037 RMK AO1 T01410066
KGVE 221435Z AUTO 00000KT 10SM CLR 14/07 A3037 RMK AO1 T01410070
KGVE 221415Z AUTO 00000KT 10SM CLR 13/06 A3037 RMK AO1 T01310062
KGVE 221355Z AUTO 00000KT 10SM CLR 12/06 A3036 RMK AO1 T01240063
KGVE 221335Z AUTO 22003KT 10SM CLR 12/07 A3037 RMK AO1 T01170068
KGVE 221315Z AUTO 00000KT 10SM CLR 11/07 A3038 RMK AO1 T01110070
KGVE 221255Z AUTO 00000KT 10SM CLR 11/07 A3038 RMK AO1 T01060066
KGVE 221235Z AUTO 00000KT 10SM CLR 10/06 A3038 RMK AO1 T01000064
KGVE 221215Z AUTO 00000KT 10SM CLR 10/06 A3038 RMK AO1 T00950060
KGVE 221155Z AUTO 00000KT 10SM CLR 09/06 A3038 RMK AO1 T00890056 10096 20069
KGVE 221135Z AUTO 00000KT 10SM CLR 08/06 A3037 RMK AO1 T00790062
KGVE 221115Z AUTO 00000KT 10SM CLR 07/05 A3037 RMK AO1 T00710052
KGVE 221055Z AUTO 00000KT 10SM CLR 07/06 A3036 RMK AO1 T00690060
KGVE 221035Z AUTO 00000KT 10SM CLR 07/06 A3037 RMK AO1 T00690055
KGVE 221015Z AUTO 00000KT 10SM CLR 07/05 A3037 RMK AO1 T00720051
KGVE 220955Z AUTO 00000KT 10SM CLR 07/05 A3036 RMK AO1 T00730054
KGVE 220935Z AUTO 00000KT 10SM CLR 08/05 A3035 RMK AO1 T00770047
KGVE 220915Z AUTO 00000KT 10SM SCT120 08/05 A3035 RMK AO1 T00790050
KGVE 220855Z AUTO 00000KT 10SM CLR 08/04 A3035 RMK AO1 T00790043
KGVE 220835Z AUTO 00000KT 10SM CLR 08/05 A3035 RMK AO1 T00780045
KGVE 220815Z AUTO 00000KT 10SM CLR 08/05 A3035 RMK AO1 T00810048
KGVE 220755Z AUTO 00000KT 10SM CLR 08/06 A3036 RMK AO1 T00840056
KGVE 220735Z AUTO 00000KT 10SM CLR 09/05 A3037 RMK AO1 T00860054